createdAt,value
2023-03-10T00:02:11.446Z,128.68
2023-03-10T00:05:20.042Z,152.86
2023-03-10T00:08:27.181Z,181.90
2023-03-10T00:11:37.111Z,208.99
2023-03-10T00:14:43.502Z,207.23
2023-03-10T00:17:55.888Z,206.50
2023-03-10T00:21:01.982Z,178.58
2023-03-10T00:24:09.303Z,192.05
2023-03-10T00:27:17.883Z,185.66
2023-03-10T00:30:24.989Z,164.38
2023-03-10T00:33:31.062Z,110.04
2023-03-10T00:36:38.167Z,80.08
2023-03-10T00:39:44.138Z,70.99
2023-03-10T00:43:00.969Z,69.36
2023-03-10T00:46:08.137Z,63.97
2023-03-10T00:49:19.936Z,57.34
2023-03-10T00:52:25.856Z,53.18
2023-03-10T00:55:32.731Z,52.63
2023-03-10T00:58:42.059Z,47.69
2023-03-10T01:01:48.896Z,47.92
2023-03-10T01:04:55.291Z,47.65
2023-03-10T01:08:01.981Z,44.07
2023-03-10T01:11:08.419Z,46.24
2023-03-10T01:14:20.654Z,40.25
2023-03-10T01:17:27.785Z,38.31
2023-03-10T01:20:38.212Z,38.25
2023-03-10T01:23:44.169Z,42.92
2023-03-10T01:26:51.069Z,40.17
2023-03-10T01:29:59.777Z,37.66
2023-03-10T01:33:06.747Z,37.91
2023-03-10T01:36:16.150Z,39.13
2023-03-10T01:39:25.524Z,33.06
2023-03-10T01:42:31.567Z,28.90
2023-03-10T01:46:31.911Z,22.93
2023-03-10T01:49:48.479Z,28.49
2023-03-10T01:52:58.698Z,31.66
2023-03-10T01:56:09.740Z,44.10
2023-03-10T01:59:18.722Z,62.15
2023-03-10T02:02:25.373Z,72.48
2023-03-10T02:05:35.813Z,68.46
2023-03-10T02:08:48.654Z,60.14
2023-03-10T02:11:55.983Z,56.67
2023-03-10T02:15:02.336Z,57.23
2023-03-10T02:18:14.876Z,65.21
2023-03-10T02:21:46.215Z,66.96
2023-03-10T02:25:02.710Z,64.33
2023-03-10T02:28:12.097Z,59.60
2023-03-10T02:31:22.421Z,42.71
2023-03-10T02:34:31.547Z,32.93
2023-03-10T02:37:40.185Z,27.67
2023-03-10T02:40:50.978Z,27.90
2023-03-10T02:44:11.025Z,28.62
2023-03-10T02:47:17.375Z,27.94
2023-03-10T02:50:30.204Z,31.18
2023-03-10T02:53:36.236Z,30.87
2023-03-10T02:56:43.916Z,31.21
2023-03-10T02:59:53.379Z,34.21
2023-03-10T03:03:01.156Z,36.98
2023-03-10T03:06:08.600Z,39.67
2023-03-10T03:09:15.830Z,43.15
2023-03-10T03:12:23.238Z,44.53
2023-03-10T03:15:33.837Z,47.13
2023-03-10T03:18:41.468Z,45.20
2023-03-10T03:21:51.260Z,47.98
2023-03-10T03:24:57.342Z,46.32
2023-03-10T03:28:04.312Z,48.51
2023-03-10T03:31:18.762Z,53.16
2023-03-10T03:35:25.279Z,60.61
2023-03-10T03:38:32.950Z,63.11
2023-03-10T03:41:42.277Z,59.03
2023-03-10T03:44:50.124Z,59.00
2023-03-10T03:48:00.494Z,75.55
2023-03-10T03:51:09.548Z,83.46
2023-03-10T03:54:20.329Z,71.00
2023-03-10T03:57:29.342Z,57.55
2023-03-10T04:00:40.364Z,52.82
2023-03-10T04:03:51.507Z,55.12
2023-03-10T04:06:58.722Z,55.06
2023-03-10T04:10:05.490Z,53.84
2023-03-10T04:13:12.516Z,55.34
2023-03-10T04:16:18.718Z,61.79
2023-03-10T04:19:30.389Z,84.36
2023-03-10T04:22:45.133Z,100.23
2023-03-10T04:25:52.627Z,98.91
2023-03-10T04:28:59.741Z,90.57
2023-03-10T04:32:09.508Z,95.50
2023-03-10T04:35:22.172Z,102.11
2023-03-10T04:38:29.018Z,128.12
2023-03-10T04:41:35.201Z,136.90
2023-03-10T04:44:42.132Z,144.91
2023-03-10T04:47:48.116Z,142.53
2023-03-10T04:51:05.544Z,107.64
2023-03-10T04:54:16.139Z,108.66
2023-03-10T04:57:24.751Z,118.43
2023-03-10T05:00:32.448Z,128.35
2023-03-10T05:03:39.690Z,124.14
2023-03-10T05:06:54.070Z,123.01
2023-03-10T05:10:06.253Z,115.75
2023-03-10T05:13:13.147Z,122.96
2023-03-10T05:16:24.643Z,136.48
2023-03-10T05:19:32.592Z,147.99
2023-03-10T05:22:43.309Z,150.69
2023-03-10T05:25:52.696Z,141.40
2023-03-10T05:29:01.575Z,120.21
2023-03-10T05:32:17.599Z,149.48
2023-03-10T05:35:27.324Z,153.84
2023-03-10T05:38:39.518Z,132.61
2023-03-10T05:41:51.625Z,116.92
2023-03-10T05:44:58.506Z,165.15
2023-03-10T05:48:05.782Z,227.88
2023-03-10T05:51:15.494Z,210.14
2023-03-10T05:54:25.749Z,192.86
2023-03-10T05:57:32.189Z,193.13
2023-03-10T06:00:39.265Z,181.13
2023-03-10T06:03:52.211Z,116.14
2023-03-10T06:07:00.815Z,79.74
2023-03-10T06:10:30.114Z,57.61
2023-03-10T06:13:36.969Z,46.85
2023-03-10T06:16:45.134Z,45.05
2023-03-10T06:19:52.635Z,50.84
2023-03-10T06:22:59.121Z,57.79
2023-03-10T06:26:12.309Z,62.35
2023-03-10T06:29:18.196Z,67.15
2023-03-10T06:32:25.145Z,61.17
2023-03-10T06:35:32.404Z,59.91
2023-03-10T06:38:39.412Z,56.77
2023-03-10T06:41:48.040Z,58.89
2023-03-10T06:44:57.932Z,74.14
2023-03-10T06:48:03.740Z,77.73
2023-03-10T06:51:22.376Z,68.72
2023-03-10T06:54:28.701Z,66.79
2023-03-10T06:57:40.255Z,60.94
2023-03-10T07:00:49.454Z,67.22
2023-03-10T07:03:57.112Z,77.48
2023-03-10T07:07:15.229Z,71.13
2023-03-10T07:10:23.395Z,48.29
2023-03-10T07:13:31.897Z,45.62
2023-03-10T07:16:38.816Z,45.10
2023-03-10T07:19:47.865Z,48.91
2023-03-10T07:22:55.375Z,58.50
2023-03-10T07:26:01.618Z,52.42
2023-03-10T07:29:15.920Z,52.24
2023-03-10T07:32:21.754Z,52.89
2023-03-10T07:35:28.858Z,51.70
2023-03-10T07:38:35.832Z,44.62
2023-03-10T07:41:42.792Z,38.92
2023-03-10T07:44:53.648Z,37.99
2023-03-10T07:48:00.441Z,38.98
2023-03-10T07:51:06.806Z,38.40
2023-03-10T07:54:16.248Z,33.39
2023-03-10T07:57:22.241Z,37.43
2023-03-10T08:00:31.805Z,32.56
2023-03-10T08:03:38.392Z,30.53
2023-03-10T08:06:48.069Z,30.58
2023-03-10T08:09:54.592Z,29.73
2023-03-10T08:13:01.530Z,24.54
2023-03-10T08:16:11.873Z,22.05
2023-03-10T08:19:18.722Z,24.26
2023-03-10T08:22:24.601Z,28.03
2023-03-10T08:25:32.005Z,24.40
2023-03-10T08:28:39.060Z,26.99
2023-03-10T08:31:49.347Z,27.80
2023-03-10T08:34:55.252Z,21.99
2023-03-10T08:38:02.068Z,22.15
2023-03-10T08:41:21.422Z,24.70
2023-03-10T08:44:28.409Z,18.43
2023-03-10T08:47:37.183Z,20.89
2023-03-10T08:50:44.349Z,22.71
2023-03-10T08:53:56.349Z,19.63
2023-03-10T08:57:03.211Z,18.38
2023-03-10T09:00:14.847Z,21.22
2023-03-10T09:03:25.933Z,19.69
2023-03-10T09:06:33.688Z,23.55
2023-03-10T09:09:40.498Z,23.57
2023-03-10T09:12:46.430Z,20.50
2023-03-10T09:15:53.329Z,23.74
2023-03-10T09:19:08.320Z,23.57
2023-03-10T09:22:15.112Z,22.70
2023-03-10T09:25:21.068Z,21.25
2023-03-10T09:28:28.013Z,22.92
2023-03-10T09:31:38.437Z,23.45
2023-03-10T09:34:48.388Z,25.75
2023-03-10T09:37:54.286Z,27.62
2023-03-10T09:41:25.350Z,26.61
2023-03-10T09:44:43.650Z,26.75
2023-03-10T09:48:14.628Z,24.89
2023-03-10T09:51:28.732Z,27.86
2023-03-10T09:54:55.701Z,28.59
2023-03-10T09:58:03.978Z,27.49
2023-03-10T10:01:21.595Z,29.16
2023-03-10T10:04:40.903Z,29.54
2023-03-10T10:07:57.873Z,30.12
2023-03-10T10:11:06.537Z,31.04
2023-03-10T10:14:28.815Z,29.93
2023-03-10T10:18:02.934Z,30.38
2023-03-10T10:21:41.771Z,29.30
2023-03-10T10:25:19.195Z,29.42
2023-03-10T10:28:42.362Z,27.47
2023-03-10T10:32:09.083Z,30.25
2023-03-10T10:35:26.238Z,29.36
2023-03-10T10:38:36.330Z,26.73
2023-03-10T10:41:45.664Z,26.57
2023-03-10T10:44:55.776Z,30.58
2023-03-10T10:48:02.867Z,29.35
2023-03-10T10:51:27.461Z,29.53
2023-03-10T10:54:43.941Z,34.32
2023-03-10T10:58:01.715Z,40.22
2023-03-10T11:01:12.691Z,36.35
2023-03-10T11:04:18.793Z,31.16
2023-03-10T11:07:30.138Z,30.32
2023-03-10T11:10:38.300Z,36.72
2023-03-10T11:14:08.643Z,39.84
2023-03-10T11:17:25.505Z,55.93
2023-03-10T11:20:47.012Z,80.60
2023-03-10T11:24:12.658Z,103.83
2023-03-10T11:27:34.263Z,98.86
2023-03-10T11:30:58.408Z,87.53
2023-03-10T11:34:25.920Z,109.43
2023-03-10T11:37:45.869Z,59.79
2023-03-10T11:40:58.445Z,47.58
2023-03-10T11:44:24.169Z,42.85
2023-03-10T11:47:54.631Z,42.15
2023-03-10T11:51:04.469Z,44.59
2023-03-10T11:54:25.685Z,47.89
2023-03-10T11:57:42.806Z,56.63
2023-03-10T12:00:53.982Z,59.06
2023-03-10T12:04:19.442Z,55.23
2023-03-10T12:07:32.816Z,48.72
2023-03-10T12:10:45.568Z,65.26
2023-03-10T12:13:59.710Z,68.87
2023-03-10T12:17:08.643Z,70.28
2023-03-10T12:20:37.214Z,106.28
2023-03-10T12:23:45.834Z,71.35
2023-03-10T12:27:07.573Z,59.70
2023-03-10T12:30:51.339Z,65.93
2023-03-10T12:34:18.904Z,55.70
2023-03-10T12:37:28.379Z,61.82
2023-03-10T12:40:55.203Z,66.21
2023-03-10T12:44:03.472Z,72.97
2023-03-10T12:47:46.323Z,85.80
2023-03-10T12:51:03.118Z,73.17
2023-03-10T12:54:57.401Z,66.02
2023-03-10T12:58:25.584Z,71.81
2023-03-10T13:01:55.198Z,73.49
2023-03-10T13:05:08.351Z,106.86
2023-03-10T13:08:27.435Z,98.31
2023-03-10T13:11:44.150Z,108.08
2023-03-10T13:14:59.153Z,117.31
2023-03-10T13:18:22.620Z,100.47
2023-03-10T13:21:34.385Z,89.77
2023-03-10T13:24:42.532Z,125.78
2023-03-10T13:27:52.835Z,97.35
2023-03-10T13:31:26.538Z,76.30
2023-03-10T13:34:36.990Z,55.39
2023-03-10T13:37:42.927Z,53.82
2023-03-10T13:40:52.823Z,58.50
2023-03-10T13:44:01.663Z,53.33
2023-03-10T13:47:20.650Z,53.73
2023-03-10T13:50:28.196Z,62.50
2023-03-10T13:53:36.462Z,58.97
2023-03-10T13:56:46.477Z,44.45
2023-03-10T14:00:00.003Z,47.42
2023-03-10T14:03:06.670Z,52.05
2023-03-10T14:06:17.349Z,68.21
2023-03-10T14:09:26.286Z,48.92
2023-03-10T14:12:42.846Z,83.77
2023-03-10T14:15:59.252Z,85.79
2023-03-10T14:19:06.057Z,91.39
2023-03-10T14:22:32.324Z,111.42
2023-03-10T14:25:44.755Z,93.10
2023-03-10T14:28:50.671Z,115.75
2023-03-10T14:32:00.149Z,99.07
2023-03-10T14:35:11.888Z,108.46
2023-03-10T14:38:20.149Z,93.30
2023-03-10T14:41:28.544Z,79.96
2023-03-10T14:44:36.887Z,64.27
2023-03-10T14:47:45.841Z,99.09
2023-03-10T14:50:56.584Z,110.10
2023-03-10T14:54:03.026Z,93.00
2023-03-10T14:57:10.264Z,92.51
2023-03-10T15:00:21.642Z,77.32
2023-03-10T15:03:31.454Z,88.57
2023-03-10T15:06:37.786Z,86.04
2023-03-10T15:09:44.744Z,90.49
2023-03-10T15:12:54.116Z,92.00
2023-03-10T15:16:01.733Z,88.40
2023-03-10T15:19:15.389Z,65.87
2023-03-10T15:22:22.337Z,62.58
2023-03-10T15:25:28.711Z,58.77
2023-03-10T15:28:36.400Z,62.72
2023-03-10T15:31:43.517Z,72.62
2023-03-10T15:34:53.301Z,74.53
2023-03-10T15:38:02.875Z,72.48
2023-03-10T15:41:10.578Z,76.41
2023-03-10T15:44:16.724Z,69.56
2023-03-10T15:47:23.376Z,72.38
2023-03-10T15:50:31.966Z,84.08
2023-03-10T15:53:53.501Z,78.02
2023-03-10T15:56:59.503Z,104.83
2023-03-10T16:00:07.214Z,94.25
2023-03-10T16:03:18.029Z,84.44
2023-03-10T16:06:31.890Z,76.35
2023-03-10T16:09:37.924Z,79.76
2023-03-10T16:12:46.482Z,96.06
2023-03-10T16:15:52.997Z,77.51
2023-03-10T16:18:59.960Z,76.34
2023-03-10T16:22:10.659Z,81.14
2023-03-10T16:25:21.572Z,111.76
2023-03-10T16:28:27.641Z,111.89
2023-03-10T16:31:35.380Z,105.08
2023-03-10T16:34:41.511Z,119.38
2023-03-10T16:37:50.940Z,128.13
2023-03-10T16:40:58.146Z,133.83
2023-03-10T16:44:08.025Z,131.84
2023-03-10T16:47:15.725Z,171.35
2023-03-10T16:50:24.367Z,243.25
2023-03-10T16:53:33.033Z,265.70
2023-03-10T16:56:44.165Z,287.61
2023-03-10T16:59:56.472Z,245.87
2023-03-10T17:03:04.513Z,183.41
2023-03-10T17:06:13.516Z,124.60
2023-03-10T17:09:23.117Z,79.19
2023-03-10T17:12:29.203Z,81.44
2023-03-10T17:15:36.009Z,78.84
2023-03-10T17:18:42.149Z,95.26
2023-03-10T17:21:52.684Z,96.12
2023-03-10T17:25:02.182Z,89.54
2023-03-10T17:28:11.383Z,86.26
2023-03-10T17:31:20.907Z,86.90
2023-03-10T17:34:29.587Z,83.76
2023-03-10T17:37:35.631Z,97.77
2023-03-10T17:40:46.364Z,108.47
2023-03-10T17:43:53.044Z,96.89
2023-03-10T17:47:00.001Z,84.48
2023-03-10T17:50:06.774Z,79.62
2023-03-10T17:53:16.515Z,72.39
2023-03-10T17:56:25.209Z,66.43
2023-03-10T17:59:33.016Z,84.59
2023-03-10T18:02:39.042Z,112.05
2023-03-10T18:05:47.841Z,132.74
2023-03-10T18:08:56.464Z,152.82
2023-03-10T18:12:06.461Z,141.58
2023-03-10T18:15:15.359Z,161.92
2023-03-10T18:18:22.242Z,174.76
2023-03-10T18:21:29.828Z,150.13
2023-03-10T18:24:36.677Z,135.40
2023-03-10T18:27:46.115Z,125.45
2023-03-10T18:30:55.013Z,142.17
2023-03-10T18:34:01.340Z,125.56
2023-03-10T18:37:08.390Z,117.95
2023-03-10T18:40:19.740Z,112.70
2023-03-10T18:43:32.315Z,123.08
2023-03-10T18:46:38.409Z,132.00
2023-03-10T18:49:45.574Z,205.79
2023-03-10T18:52:51.633Z,152.00
2023-03-10T18:56:03.156Z,107.14
2023-03-10T18:59:13.498Z,111.03
2023-03-10T19:02:20.619Z,113.08
2023-03-10T19:05:26.677Z,109.31
2023-03-10T19:08:34.542Z,122.68
2023-03-10T19:11:41.822Z,124.14
2023-03-10T19:14:51.326Z,143.75
2023-03-10T19:17:59.006Z,117.03
2023-03-10T19:21:09.764Z,135.27
2023-03-10T19:24:15.826Z,170.28
2023-03-10T19:27:22.852Z,169.24
2023-03-10T19:30:32.041Z,151.99
2023-03-10T19:33:40.006Z,133.68
2023-03-10T19:36:46.126Z,141.29
2023-03-10T19:39:53.157Z,174.57
2023-03-10T19:42:59.959Z,150.86
2023-03-10T19:46:12.927Z,141.37
2023-03-10T19:49:19.385Z,118.58
2023-03-10T19:52:26.859Z,116.43
2023-03-10T19:55:33.353Z,118.35
2023-03-10T19:58:40.772Z,124.46
2023-03-10T20:01:49.753Z,140.78
2023-03-10T20:04:56.738Z,143.50
2023-03-10T20:08:02.959Z,154.47
2023-03-10T20:11:13.739Z,167.64
2023-03-10T20:14:19.952Z,148.57
2023-03-10T20:17:30.823Z,185.81
2023-03-10T20:20:37.423Z,166.77
2023-03-10T20:23:47.780Z,159.34
2023-03-10T20:26:53.879Z,146.05
2023-03-10T20:30:00.865Z,165.58
2023-03-10T20:33:11.915Z,174.36
2023-03-10T20:36:18.933Z,166.45
2023-03-10T20:39:24.951Z,151.07
2023-03-10T20:42:31.878Z,127.21
2023-03-10T20:45:39.009Z,122.31
2023-03-10T20:48:48.876Z,119.89
2023-03-10T20:51:55.141Z,117.84
2023-03-10T20:55:02.200Z,103.07
2023-03-10T20:58:09.173Z,110.74
2023-03-10T21:01:19.704Z,112.12
2023-03-10T21:04:28.557Z,109.57
2023-03-10T21:07:35.947Z,108.75
2023-03-10T21:10:44.983Z,107.84
2023-03-10T21:13:53.189Z,108.87
2023-03-10T21:17:00.241Z,106.92
2023-03-10T21:20:13.760Z,105.60
2023-03-10T21:23:19.857Z,107.98
2023-03-10T21:26:27.211Z,98.60
2023-03-10T21:29:33.337Z,91.08
2023-03-10T21:32:41.161Z,84.17
2023-03-10T21:35:49.921Z,82.58
2023-03-10T21:38:57.131Z,81.29
2023-03-10T21:42:03.311Z,83.50
2023-03-10T21:45:14.643Z,84.69
2023-03-10T21:48:20.772Z,99.40
2023-03-10T21:51:33.813Z,108.35
2023-03-10T21:54:40.181Z,106.39
2023-03-10T21:57:46.963Z,102.25
2023-03-10T22:00:56.054Z,111.91
2023-03-10T22:04:03.046Z,109.82
2023-03-10T22:07:11.684Z,102.88
2023-03-10T22:10:19.891Z,101.82
2023-03-10T22:13:25.936Z,100.19
2023-03-10T22:16:33.128Z,97.35
2023-03-10T22:19:39.209Z,95.05
2023-03-10T22:22:48.788Z,91.98
2023-03-10T22:25:54.817Z,92.97
2023-03-10T22:29:01.616Z,98.78
2023-03-10T22:32:08.958Z,103.93
2023-03-10T22:35:16.720Z,99.89
2023-03-10T22:38:25.595Z,108.86
2023-03-10T22:41:32.312Z,115.82
2023-03-10T22:44:39.954Z,108.91
2023-03-10T22:47:47.046Z,111.90
2023-03-10T22:50:53.403Z,112.29
2023-03-10T22:54:03.265Z,110.89
2023-03-10T22:57:09.939Z,113.40
2023-03-10T23:00:22.606Z,117.87
2023-03-10T23:03:28.757Z,125.43
2023-03-10T23:06:36.248Z,122.84
2023-03-10T23:09:46.208Z,129.25
2023-03-10T23:12:54.733Z,129.90
2023-03-10T23:16:01.178Z,127.99
2023-03-10T23:19:08.961Z,131.35
2023-03-10T23:22:14.777Z,134.31
2023-03-10T23:25:27.615Z,145.47
2023-03-10T23:28:33.712Z,168.49
2023-03-10T23:31:40.561Z,185.63
2023-03-10T23:34:46.741Z,203.27
2023-03-10T23:37:54.266Z,185.83
2023-03-10T23:41:02.832Z,145.63
2023-03-10T23:44:09.983Z,146.39
2023-03-10T23:47:18.791Z,148.37
2023-03-10T23:50:30.302Z,128.34
2023-03-10T23:53:36.399Z,115.54
2023-03-10T23:56:45.835Z,128.27
2023-03-10T23:59:52.042Z,122.28
